Time;durP1;ratioP1;P1;durP2;ratioP2;P2;SDS_P1;SDS_P2;PMS_P1;PMS_P2;Temp;Humidity;BMP_temperature;BMP_pressure;BME280_temperature;BME280_humidity;BME280_pressure;Samples;Min_cycle;Max_cycle;Signal;HPM_P1;HPM_P2
2022/12/07 00:01:31;;;;;;;40.25;20.60;;;0.60;99.90;;;;;;5057158;28;20021;-67
2022/12/07 00:04:04;;;;;;;41.08;21.35;;;0.50;99.90;;;;;;5056229;28;20446;-68
2022/12/07 00:06:31;;;;;;;39.50;22.10;;;0.50;99.90;;;;;;5056599;28;20025;-67
2022/12/07 00:08:58;;;;;;;39.42;20.52;;;0.50;99.90;;;;;;5056923;28;20435;-70
2022/12/07 00:11:24;;;;;;;34.90;21.05;;;0.40;99.90;;;;;;5056863;28;20017;-67
2022/12/07 00:13:54;;;;;;;44.05;23.83;;;0.30;99.90;;;;;;5056925;28;20017;-68
2022/12/07 00:16:22;;;;;;;39.08;21.30;;;0.30;99.90;;;;;;5057069;28;20021;-68
2022/12/07 00:18:48;;;;;;;38.58;20.58;;;0.20;99.90;;;;;;5056686;28;20028;-70
2022/12/07 00:21:17;;;;;;;36.53;18.13;;;0.20;99.90;;;;;;5056901;28;20047;-69
2022/12/07 00:23:44;;;;;;;35.13;18.60;;;0.20;99.90;;;;;;5056670;28;20455;-69
2022/12/07 00:26:16;;;;;;;37.03;18.95;;;0.10;99.90;;;;;;5038665;28;20021;-69
2022/12/07 00:28:48;;;;;;;32.45;18.17;;;0.20;99.90;;;;;;5056966;28;20048;-68
2022/12/07 00:31:15;;;;;;;38.72;20.90;;;0.20;99.90;;;;;;5056543;28;20028;-71
2022/12/07 00:33:41;;;;;;;35.13;18.42;;;0.20;99.90;;;;;;5056814;28;20036;-67
2022/12/07 00:36:10;;;;;;;40.10;18.60;;;0.20;99.90;;;;;;5056410;28;20096;-68
2022/12/07 00:38:37;;;;;;;35.45;18.02;;;0.20;99.90;;;;;;5056555;28;20037;-71
2022/12/07 00:41:05;;;;;;;34.85;18.15;;;0.10;99.90;;;;;;5056221;28;20487;-70
2022/12/07 00:43:31;;;;;;;38.42;19.73;;;0.00;99.90;;;;;;5056198;28;20021;-69
2022/12/07 00:45:57;;;;;;;33.92;18.77;;;0.10;99.90;;;;;;5056120;28;20094;-68
2022/12/07 00:48:24;;;;;;;34.38;18.05;;;0.00;99.90;;;;;;5056096;28;20048;-71
2022/12/07 00:50:50;;;;;;;36.38;18.60;;;0.00;99.90;;;;;;5056164;28;20526;-69
2022/12/07 00:53:16;;;;;;;31.98;17.42;;;-0.10;99.90;;;;;;5056066;28;20104;-67
2022/12/07 00:55:43;;;;;;;35.13;18.23;;;0.00;99.90;;;;;;5055988;28;20067;-67
2022/12/07 00:58:10;;;;;;;35.60;18.98;;;0.00;99.90;;;;;;5071381;28;20410;-68
2022/12/07 01:00:38;;;;;;;34.72;17.92;;;0.00;99.90;;;;;;5075946;28;20033;-69
2022/12/07 01:03:05;;;;;;;36.08;17.90;;;-0.10;99.90;;;;;;5076211;28;20012;-69
2022/12/07 01:05:30;;;;;;;34.88;18.25;;;-0.10;99.90;;;;;;5075835;28;20024;-71
2022/12/07 01:07:56;;;;;;;33.10;17.52;;;-0.10;99.90;;;;;;5076339;28;20017;-67
2022/12/07 01:10:22;;;;;;;34.55;17.25;;;-0.10;99.90;;;;;;5075861;28;20134;-70
2022/12/07 01:12:47;;;;;;;34.08;16.98;;;-0.20;99.90;;;;;;5076019;28;20023;-69
2022/12/07 01:15:13;;;;;;;30.50;16.80;;;-0.20;99.90;;;;;;5075918;28;20388;-70
2022/12/07 01:17:39;;;;;;;30.25;16.48;;;-0.30;99.90;;;;;;5075606;28;20103;-69
2022/12/07 01:20:07;;;;;;;32.10;16.05;;;-0.50;99.90;;;;;;5075496;28;20038;-70
2022/12/07 01:22:37;;;;;;;30.90;16.92;;;-0.50;99.90;;;;;;5075904;28;20028;-68
2022/12/07 01:25:03;;;;;;;30.25;16.30;;;-0.50;99.90;;;;;;5076015;28;20024;-68
2022/12/07 01:27:29;;;;;;;30.52;16.02;;;-0.40;99.90;;;;;;5075484;28;20029;-68
2022/12/07 01:29:54;;;;;;;34.15;17.23;;;-0.40;99.90;;;;;;5075619;28;20042;-69
2022/12/07 01:32:20;;;;;;;31.95;17.25;;;-0.40;99.90;;;;;;5075793;28;20084;-70
2022/12/07 01:34:48;;;;;;;34.95;17.20;;;-0.40;99.90;;;;;;5075276;28;20017;-69
2022/12/07 01:37:13;;;;;;;32.72;17.20;;;-0.40;99.90;;;;;;5075328;28;20033;-68
2022/12/07 01:39:39;;;;;;;36.58;17.77;;;-0.40;99.90;;;;;;5075556;28;20021;-68
2022/12/07 01:42:05;;;;;;;33.20;18.65;;;-0.50;99.90;;;;;;5075280;28;20029;-69
2022/12/07 01:44:32;;;;;;;30.90;16.92;;;-0.40;99.90;;;;;;5075198;28;20059;-69
2022/12/07 01:47:00;;;;;;;32.75;17.63;;;-0.50;99.90;;;;;;5075420;28;20486;-68
2022/12/07 01:49:39;;;;;;;40.50;18.98;;;-0.60;99.90;;;;;;5075147;28;20398;-71
2022/12/07 01:52:16;;;;;;;37.22;18.55;;;-0.50;99.90;;;;;;5075380;28;20021;-70
2022/12/07 01:54:44;;;;;;;35.60;18.63;;;-0.50;99.90;;;;;;5075194;28;20021;-70
2022/12/07 01:57:11;;;;;;;36.88;19.05;;;-0.60;99.90;;;;;;5057011;28;20485;-69
2022/12/07 01:59:37;;;;;;;39.03;18.33;;;-0.60;99.90;;;;;;5074067;28;20055;-68
2022/12/07 02:02:09;;;;;;;35.22;19.35;;;-0.70;99.90;;;;;;5074637;28;20552;-70
2022/12/07 02:04:36;;;;;;;32.88;16.27;;;-0.70;99.90;;;;;;5075020;28;20020;-70
2022/12/07 02:07:03;;;;;;;34.38;16.58;;;-0.70;99.90;;;;;;5074730;28;20024;-70
2022/12/07 02:09:28;;;;;;;30.63;16.77;;;-0.80;99.90;;;;;;5074194;28;20020;-69
2022/12/07 02:11:55;;;;;;;30.40;17.17;;;-0.80;99.90;;;;;;5074693;28;20082;-69
2022/12/07 02:14:21;;;;;;;32.75;15.23;;;-0.90;99.90;;;;;;5074820;28;20016;-68
2022/12/07 02:16:49;;;;;;;33.97;16.30;;;-0.80;99.90;;;;;;5074686;28;20035;-70
2022/12/07 02:19:57;;;;;;;34.20;16.88;;;-0.90;99.90;;;;;;5074658;28;20025;-71
2022/12/07 02:22:34;;;;;;;32.35;15.40;;;-0.80;99.90;;;;;;5074979;28;20027;-70
2022/12/07 02:25:21;;;;;;;30.50;15.18;;;-0.60;99.90;;;;;;5074340;28;20387;-70
2022/12/07 02:28:17;;;;;;;30.23;15.27;;;-0.60;99.90;;;;;;5074726;28;20031;-67
2022/12/07 02:30:46;;;;;;;30.13;15.32;;;-0.80;99.90;;;;;;5033364;28;20028;-68
2022/12/07 02:33:14;;;;;;;32.25;17.15;;;-0.90;99.90;;;;;;5074824;28;20023;-67
2022/12/07 02:35:55;;;;;;;32.38;16.90;;;-0.90;99.90;;;;;;5074316;28;20448;-70
2022/12/07 02:38:38;;;;;;;38.05;16.98;;;-1.00;99.90;;;;;;5074764;28;20467;-71
2022/12/07 02:41:19;;;;;;;34.17;15.88;;;-1.00;99.90;;;;;;5074593;28;20043;-70
2022/12/07 02:43:51;;;;;;;27.65;14.73;;;-1.10;99.90;;;;;;5074359;28;20083;-68
2022/12/07 02:46:28;;;;;;;32.22;15.95;;;-1.00;99.90;;;;;;5073837;28;20082;-68
2022/12/07 02:48:54;;;;;;;27.77;15.10;;;-1.10;99.90;;;;;;5074201;28;20051;-70
2022/12/07 02:51:21;;;;;;;29.60;15.82;;;-1.20;99.90;;;;;;5073888;28;20027;-68
2022/12/07 02:53:47;;;;;;;30.25;14.82;;;-1.10;99.90;;;;;;5073876;28;20017;-70
2022/12/07 02:56:34;;;;;;;25.63;13.70;;;-1.10;99.90;;;;;;5055967;28;20123;-68
2022/12/07 02:59:02;;;;;;;28.70;14.57;;;-1.20;99.90;;;;;;5073869;28;20053;-71
2022/12/07 03:01:43;;;;;;;31.20;15.85;;;-1.10;99.90;;;;;;5073786;28;20032;-69
2022/12/07 03:04:37;;;;;;;31.73;15.35;;;-1.10;99.90;;;;;;5073958;28;20016;-67
2022/12/07 03:07:15;;;;;;;33.85;14.90;;;-1.10;99.90;;;;;;5073975;28;20020;-70
2022/12/07 03:09:55;;;;;;;36.85;18.00;;;-1.10;99.90;;;;;;5074093;28;20051;-69
2022/12/07 03:12:29;;;;;;;37.53;17.37;;;-1.00;99.90;;;;;;5074415;28;20091;-70
2022/12/07 03:15:21;;;;;;;43.25;17.95;;;-0.80;99.90;;;;;;5074174;28;20020;-68
2022/12/07 03:17:47;;;;;;;52.13;17.20;;;-0.80;99.90;;;;;;5073978;28;20079;-68
2022/12/07 03:20:17;;;;;;;48.58;17.63;;;-0.70;99.90;;;;;;5074368;28;20032;-68
2022/12/07 03:22:44;;;;;;;43.47;17.80;;;-0.70;99.90;;;;;;5073657;28;20017;-68
2022/12/07 03:25:15;;;;;;;49.70;17.33;;;-0.60;99.90;;;;;;5073840;28;20540;-69
2022/12/07 03:27:44;;;;;;;42.55;17.42;;;-0.70;99.90;;;;;;5073691;28;20029;-66
2022/12/07 03:30:16;;;;;;;53.30;24.15;;;-0.70;99.90;;;;;;5073932;28;20024;-70
2022/12/07 03:32:48;;;;;;;63.58;24.73;;;-0.80;99.90;;;;;;5073659;28;20413;-69
2022/12/07 03:35:31;;;;;;;83.05;31.27;;;-0.70;99.90;;;;;;5073660;28;20021;-68
2022/12/07 03:38:19;;;;;;;69.35;27.48;;;-0.80;99.90;;;;;;5073503;28;20025;-70
2022/12/07 03:41:14;;;;;;;60.15;26.90;;;-0.80;99.90;;;;;;5073403;28;20044;-70
2022/12/07 03:43:41;;;;;;;73.60;19.08;;;-0.80;99.90;;;;;;5067928;28;20039;-69
2022/12/07 03:46:32;;;;;;;72.20;17.45;;;-0.80;99.90;;;;;;5073415;28;20020;-69
2022/12/07 03:49:06;;;;;;;72.15;18.77;;;-0.80;99.90;;;;;;5073622;28;20103;-70
2022/12/07 03:51:45;;;;;;;106.88;20.30;;;-0.80;99.90;;;;;;5073737;28;20021;-70
2022/12/07 03:54:36;;;;;;;154.52;32.38;;;-0.80;99.90;;;;;;5073579;28;20108;-71
2022/12/07 03:57:03;;;;;;;150.70;28.27;;;-0.80;99.90;;;;;;5073525;28;20020;-69
2022/12/07 03:59:30;;;;;;;92.95;26.38;;;-0.80;99.90;;;;;;5072854;28;20565;-69
2022/12/07 04:02:01;;;;;;;227.60;28.00;;;-0.90;99.90;;;;;;5073029;28;20028;-69
2022/12/07 04:04:27;;;;;;;92.22;38.13;;;-1.00;99.90;;;;;;5073547;28;20021;-69
2022/12/07 04:06:53;;;;;;;118.82;35.45;;;-1.00;99.90;;;;;;5073393;28;20448;-71
2022/12/07 04:09:19;;;;;;;116.90;25.98;;;-1.00;99.90;;;;;;5072831;28;20058;-70
2022/12/07 04:11:45;;;;;;;66.22;20.10;;;-1.00;99.90;;;;;;5055418;28;20055;-70
2022/12/07 04:14:20;;;;;;;35.42;16.48;;;-0.90;99.90;;;;;;5073089;28;20441;-70
2022/12/07 04:16:58;;;;;;;37.28;18.25;;;-0.90;99.90;;;;;;5073564;28;20102;-69
2022/12/07 04:19:29;;;;;;;36.00;18.40;;;-0.80;99.90;;;;;;5073147;28;20025;-70
2022/12/07 04:21:56;;;;;;;47.35;18.38;;;-0.80;99.90;;;;;;5073295;28;20052;-70
2022/12/07 04:24:22;;;;;;;63.42;18.13;;;-0.70;99.90;;;;;;5073491;28;20036;-68
2022/12/07 04:26:48;;;;;;;53.50;17.42;;;-0.90;99.90;;;;;;5073471;28;20021;-69
2022/12/07 04:29:15;;;;;;;79.47;17.70;;;-0.90;99.90;;;;;;5073190;28;20113;-68
2022/12/07 04:31:40;;;;;;;67.18;18.15;;;-1.00;99.90;;;;;;5073100;28;20082;-67
2022/12/07 04:34:07;;;;;;;108.45;19.92;;;-1.00;99.90;;;;;;5075934;28;20016;-69
2022/12/07 04:36:33;;;;;;;55.33;18.58;;;-1.00;99.90;;;;;;5058879;28;20028;-68
2022/12/07 04:39:00;;;;;;;46.67;22.15;;;-1.10;99.90;;;;;;5076535;28;20029;-70
2022/12/07 04:41:29;;;;;;;41.75;18.30;;;-1.10;99.90;;;;;;5076461;28;20521;-69
2022/12/07 04:44:00;;;;;;;36.25;16.48;;;-1.00;99.90;;;;;;5076536;28;20393;-69
2022/12/07 04:46:27;;;;;;;35.38;15.68;;;-1.00;99.90;;;;;;5076363;28;20036;-68
2022/12/07 04:48:53;;;;;;;29.20;14.82;;;-1.00;99.90;;;;;;5076202;28;20101;-70
2022/12/07 04:51:25;;;;;;;36.53;15.57;;;-1.00;99.90;;;;;;5076288;28;20028;-69
2022/12/07 04:53:51;;;;;;;28.05;15.43;;;-1.10;99.90;;;;;;5076276;28;20062;-69
2022/12/07 04:56:17;;;;;;;37.47;16.63;;;-1.10;99.90;;;;;;5076107;28;20055;-67
2022/12/07 04:58:44;;;;;;;38.70;13.40;;;-1.20;99.90;;;;;;5076043;28;20044;-68
2022/12/07 05:01:11;;;;;;;54.63;16.50;;;-1.30;99.90;;;;;;5076278;28;20031;-69
2022/12/07 05:03:37;;;;;;;37.55;16.40;;;-1.30;99.90;;;;;;5075924;28;20411;-68
2022/12/07 05:06:03;;;;;;;34.60;14.85;;;-1.30;99.90;;;;;;5075985;28;20028;-71
2022/12/07 05:08:29;;;;;;;32.70;14.40;;;-1.30;99.90;;;;;;5075960;28;20017;-67
2022/12/07 05:10:55;;;;;;;28.98;14.40;;;-1.30;99.90;;;;;;5076084;28;20051;-68
2022/12/07 05:13:20;;;;;;;36.60;15.70;;;-1.40;99.90;;;;;;5075950;28;20080;-69
2022/12/07 05:15:47;;;;;;;31.33;14.85;;;-1.30;99.90;;;;;;5075893;28;20032;-68
2022/12/07 05:18:13;;;;;;;33.40;16.35;;;-1.30;99.90;;;;;;5075651;28;20100;-69
2022/12/07 05:20:40;;;;;;;27.90;13.93;;;-1.30;99.90;;;;;;5075723;28;20032;-69
2022/12/07 05:23:05;;;;;;;34.80;15.23;;;-1.30;99.90;;;;;;5075959;28;20028;-69
2022/12/07 05:25:31;;;;;;;38.00;14.02;;;-1.30;99.90;;;;;;5075517;28;20044;-70
2022/12/07 05:27:57;;;;;;;38.72;14.55;;;-1.30;99.90;;;;;;5075670;28;20024;-68
2022/12/07 05:30:26;;;;;;;50.42;15.38;;;-1.30;99.90;;;;;;5075540;28;20023;-69
2022/12/07 05:32:52;;;;;;;76.18;16.10;;;-1.30;99.90;;;;;;5075590;28;20046;-70
2022/12/07 05:35:18;;;;;;;43.05;15.60;;;-1.40;99.90;;;;;;5075451;28;20078;-68
2022/12/07 05:37:44;;;;;;;45.70;15.73;;;-1.40;99.90;;;;;;5075814;28;20016;-69
2022/12/07 05:40:11;;;;;;;51.50;15.85;;;-1.40;99.90;;;;;;5075564;28;20167;-69
2022/12/07 05:42:37;;;;;;;40.38;16.42;;;-1.40;99.90;;;;;;5075201;28;20045;-68
2022/12/07 05:45:03;;;;;;;62.72;17.63;;;-1.40;99.90;;;;;;5074103;28;20107;-70
2022/12/07 05:47:29;;;;;;;36.67;14.80;;;-1.50;99.90;;;;;;5075848;28;20091;-70
2022/12/07 05:49:55;;;;;;;26.13;14.00;;;-1.40;99.90;;;;;;5075200;28;20035;-69
2022/12/07 05:52:21;;;;;;;33.50;16.50;;;-1.40;99.90;;;;;;5075631;28;20017;-69
2022/12/07 05:54:46;;;;;;;27.60;14.45;;;-1.40;99.90;;;;;;5075144;28;20056;-69
2022/12/07 05:57:12;;;;;;;27.63;14.52;;;-1.40;99.90;;;;;;5075219;28;20017;-70
2022/12/07 05:59:38;;;;;;;36.60;14.50;;;-1.50;99.90;;;;;;5074685;28;20442;-69
2022/12/07 06:02:06;;;;;;;28.00;13.20;;;-1.60;99.90;;;;;;5074588;28;20436;-70
2022/12/07 06:04:34;;;;;;;30.67;14.52;;;-1.70;99.90;;;;;;5056641;28;20509;-68
2022/12/07 06:07:00;;;;;;;31.08;14.48;;;-1.70;99.90;;;;;;5074880;28;20090;-67
2022/12/07 06:09:27;;;;;;;34.10;14.80;;;-1.70;99.90;;;;;;5075076;28;20032;-69
2022/12/07 06:14:38;;;;;;;38.13;15.20;;;-1.80;99.90;;;;;;5074768;28;20383;-71
2022/12/07 06:17:04;;;;;;;28.98;14.45;;;-1.70;99.90;;;;;;5074279;28;20025;-70
2022/12/07 06:19:30;;;;;;;33.20;17.25;;;-1.80;99.90;;;;;;5074095;28;20032;-68
2022/12/07 06:21:56;;;;;;;48.55;16.95;;;-1.80;99.90;;;;;;5074546;28;20028;-70
2022/12/07 06:24:22;;;;;;;36.28;16.77;;;-1.90;99.90;;;;;;5074835;28;20047;-67
2022/12/07 06:26:48;;;;;;;38.50;20.70;;;-1.90;99.90;;;;;;5074892;28;20017;-68
2022/12/07 06:29:14;;;;;;;43.00;21.33;;;-2.00;99.90;;;;;;5074611;28;20025;-69
2022/12/07 06:31:40;;;;;;;36.60;19.42;;;-1.90;99.90;;;;;;5074941;28;20019;-70
2022/12/07 06:34:10;;;;;;;30.17;16.13;;;-2.00;99.90;;;;;;5074871;28;20029;-70
2022/12/07 06:36:36;;;;;;;31.20;17.02;;;-1.90;99.90;;;;;;5074445;28;20036;-69
2022/12/07 06:39:02;;;;;;;28.90;14.88;;;-2.00;99.90;;;;;;5074633;28;20077;-69
2022/12/07 06:41:28;;;;;;;29.13;15.18;;;-2.00;99.90;;;;;;5074051;28;20063;-70
2022/12/07 06:43:53;;;;;;;29.55;15.55;;;-2.00;99.90;;;;;;5074447;28;20052;-70
2022/12/07 06:46:19;;;;;;;34.35;16.05;;;-2.00;99.90;;;;;;5074327;28;20024;-69
2022/12/07 06:48:45;;;;;;;36.22;15.80;;;-1.90;99.90;;;;;;5074549;28;20020;-67
2022/12/07 06:51:11;;;;;;;35.90;17.92;;;-1.80;99.90;;;;;;5074294;28;20467;-68
2022/12/07 06:53:37;;;;;;;30.40;16.65;;;-1.70;99.90;;;;;;5074561;28;20056;-70
2022/12/07 06:56:04;;;;;;;35.35;16.10;;;-1.90;99.90;;;;;;5073506;28;20025;-69
2022/12/07 06:58:30;;;;;;;36.63;16.60;;;-2.00;99.90;;;;;;5073850;28;20083;-69
2022/12/07 07:00:56;;;;;;;57.17;18.75;;;-2.00;99.90;;;;;;5074202;28;20108;-68
2022/12/07 07:03:22;;;;;;;36.08;16.83;;;-2.00;99.90;;;;;;5055685;28;20499;-68
2022/12/07 07:05:47;;;;;;;38.60;17.52;;;-2.00;99.90;;;;;;5074056;28;20029;-68
2022/12/07 07:08:13;;;;;;;34.70;17.00;;;-1.90;99.90;;;;;;5073624;28;20399;-70
2022/12/07 07:10:39;;;;;;;40.05;18.25;;;-1.90;99.90;;;;;;5073579;28;20017;-67
2022/12/07 07:13:05;;;;;;;41.83;16.63;;;-2.00;99.90;;;;;;5073627;28;20028;-71
2022/12/07 07:15:32;;;;;;;39.42;17.98;;;-2.00;99.90;;;;;;5073658;28;20028;-69
2022/12/07 07:17:58;;;;;;;41.47;17.13;;;-2.00;99.90;;;;;;5073672;28;20097;-71
2022/12/07 07:20:23;;;;;;;37.05;17.45;;;-2.00;99.90;;;;;;5073817;28;20021;-70
2022/12/07 07:22:49;;;;;;;57.78;17.50;;;-2.00;99.90;;;;;;5073673;28;20547;-69
2022/12/07 07:25:15;;;;;;;40.35;20.90;;;-2.00;99.90;;;;;;5073759;28;20031;-70
2022/12/07 07:27:41;;;;;;;40.08;18.65;;;-2.00;99.90;;;;;;5073473;28;20024;-69
2022/12/07 07:30:07;;;;;;;34.28;17.23;;;-2.00;99.90;;;;;;5073130;28;20382;-67
2022/12/07 07:32:34;;;;;;;33.28;17.50;;;-1.90;99.90;;;;;;5073515;28;20095;-69
2022/12/07 07:35:00;;;;;;;39.45;17.67;;;-1.60;99.90;;;;;;5073684;28;20035;-68
2022/12/07 07:37:26;;;;;;;34.65;16.77;;;-1.50;99.90;;;;;;5073460;28;20483;-70
2022/12/07 07:39:52;;;;;;;37.92;16.98;;;-1.30;99.90;;;;;;5073473;28;20394;-69
2022/12/07 07:42:18;;;;;;;41.95;20.40;;;-1.30;99.90;;;;;;5073503;28;20040;-70
2022/12/07 07:44:44;;;;;;;39.10;19.92;;;-1.30;99.90;;;;;;5072919;28;20017;-69
2022/12/07 07:47:09;;;;;;;38.90;18.92;;;-1.20;99.90;;;;;;5073192;28;20029;-67
2022/12/07 07:49:35;;;;;;;38.17;18.48;;;-1.20;99.90;;;;;;5073713;28;20040;-70
2022/12/07 07:52:01;;;;;;;35.60;18.27;;;-1.00;99.90;;;;;;5073245;28;20394;-70
2022/12/07 07:54:26;;;;;;;32.63;18.40;;;-0.80;99.90;;;;;;5072838;28;20029;-68
2022/12/07 07:56:52;;;;;;;31.13;16.67;;;-0.90;99.90;;;;;;5073318;28;20035;-69
2022/12/07 07:59:18;;;;;;;31.55;17.27;;;-0.70;99.90;;;;;;5072946;28;20040;-69
2022/12/07 08:01:44;;;;;;;30.48;16.25;;;-0.80;99.90;;;;;;5073489;28;20107;-70
2022/12/07 08:04:09;;;;;;;33.58;18.77;;;-0.70;99.90;;;;;;5073236;28;20052;-68
2022/12/07 08:06:35;;;;;;;33.00;16.75;;;-0.60;99.90;;;;;;5073241;28;20082;-71
2022/12/07 08:09:01;;;;;;;32.47;17.27;;;-0.60;99.90;;;;;;5076023;28;20445;-69
2022/12/07 08:11:27;;;;;;;33.92;16.90;;;-0.60;99.90;;;;;;5077538;28;20028;-69
2022/12/07 08:13:52;;;;;;;39.78;20.95;;;-0.50;99.90;;;;;;5077348;28;20017;-68
2022/12/07 08:16:18;;;;;;;50.28;25.23;;;-0.50;99.90;;;;;;5076842;28;20059;-70
2022/12/07 08:18:44;;;;;;;54.17;26.63;;;-0.40;99.90;;;;;;5077019;28;20034;-69
2022/12/07 08:21:13;;;;;;;43.47;23.85;;;-0.40;99.90;;;;;;5076751;28;20112;-68
2022/12/07 08:23:39;;;;;;;40.80;20.98;;;-0.30;99.90;;;;;;5076975;28;20021;-68
2022/12/07 08:26:10;;;;;;;41.97;21.95;;;-0.10;99.90;;;;;;5076389;28;20036;-69
2022/12/07 08:28:36;;;;;;;44.97;25.23;;;0.00;99.90;;;;;;5076925;28;20024;-67
2022/12/07 08:31:10;;;;;;;36.22;23.10;;;0.00;99.90;;;;;;5076458;28;20031;-69
2022/12/07 08:33:36;;;;;;;37.65;22.13;;;0.00;99.90;;;;;;5076934;28;20035;-69
2022/12/07 08:36:07;;;;;;;36.35;20.77;;;0.10;99.90;;;;;;5076599;28;20070;-70
2022/12/07 08:38:35;;;;;;;42.35;22.58;;;0.20;99.90;;;;;;5076875;28;20021;-70
2022/12/07 08:41:01;;;;;;;37.83;19.52;;;0.30;99.90;;;;;;5076270;28;20036;-67
2022/12/07 08:43:26;;;;;;;34.17;17.92;;;0.50;99.90;;;;;;5077019;28;20032;-68
2022/12/07 08:46:19;;;;;;;35.90;19.88;;;0.60;99.90;;;;;;5076301;28;20029;-69
2022/12/07 08:48:54;;;;;;;35.08;19.65;;;0.90;99.90;;;;;;5076373;28;20356;-69
2022/12/07 08:51:21;;;;;;;38.05;22.90;;;1.00;99.90;;;;;;5075987;28;20035;-69
2022/12/07 08:53:48;;;;;;;40.75;25.02;;;1.10;99.90;;;;;;5076409;28;20021;-71
2022/12/07 08:56:13;;;;;;;33.78;20.40;;;1.40;99.90;;;;;;5076252;28;20074;-68
2022/12/07 08:58:40;;;;;;;36.15;20.73;;;1.60;99.90;;;;;;5076185;28;20048;-69
2022/12/07 09:01:06;;;;;;;34.00;21.13;;;1.60;99.90;;;;;;5075822;28;20032;-68
2022/12/07 09:03:31;;;;;;;35.50;20.55;;;1.70;99.90;;;;;;5057692;28;20386;-68
2022/12/07 09:05:58;;;;;;;38.15;20.92;;;1.70;99.90;;;;;;5075581;28;20060;-69
2022/12/07 09:08:28;;;;;;;33.95;17.73;;;1.80;99.90;;;;;;5076190;28;20096;-69
2022/12/07 09:10:53;;;;;;;32.55;20.23;;;1.80;99.90;;;;;;5075934;28;20129;-68
2022/12/07 09:13:19;;;;;;;30.58;17.83;;;1.80;99.90;;;;;;5076227;28;20066;-69
2022/12/07 09:15:44;;;;;;;40.97;26.27;;;1.90;99.90;;;;;;5075728;28;20554;-69
2022/12/07 09:18:10;;;;;;;41.60;25.05;;;1.80;99.90;;;;;;5075296;28;20107;-68
2022/12/07 09:20:36;;;;;;;33.90;18.77;;;2.10;99.90;;;;;;5075306;28;20036;-69
2022/12/07 09:23:01;;;;;;;37.85;22.17;;;2.20;99.90;;;;;;5075860;28;20031;-69
2022/12/07 09:25:27;;;;;;;32.25;19.10;;;2.10;99.90;;;;;;5075925;28;20107;-69
2022/12/07 09:27:58;;;;;;;28.33;16.92;;;3.70;99.90;;;;;;5075739;28;20021;-69
2022/12/07 09:30:24;;;;;;;28.10;16.98;;;5.90;99.90;;;;;;5075758;28;20025;-68
2022/12/07 09:32:49;;;;;;;24.80;15.00;;;7.20;99.90;;;;;;5075287;28;20029;-69
2022/12/07 09:35:15;;;;;;;34.60;20.80;;;7.90;99.90;;;;;;5075045;28;20586;-69
2022/12/07 09:37:41;;;;;;;25.80;17.15;;;8.90;99.90;;;;;;5076115;28;20020;-69
2022/12/07 09:40:07;;;;;;;24.60;15.82;;;9.30;99.90;;;;;;5075325;28;20020;-67
2022/12/07 09:42:43;;;;;;;22.40;14.15;;;9.10;99.90;;;;;;5075501;28;20052;-67
2022/12/07 09:45:23;;;;;;;19.75;12.82;;;9.60;99.90;;;;;;5075570;28;20024;-67
2022/12/07 09:47:50;;;;;;;22.15;13.57;;;9.60;99.90;;;;;;5075884;28;20021;-67
2022/12/07 09:50:23;;;;;;;19.75;12.48;;;9.40;99.90;;;;;;5075513;28;20025;-67
2022/12/07 09:52:49;;;;;;;22.85;13.00;;;9.30;99.90;;;;;;5075258;28;20498;-67
2022/12/07 09:55:22;;;;;;;20.17;12.68;;;9.00;99.90;;;;;;5075035;28;20077;-67
2022/12/07 09:57:48;;;;;;;28.90;15.57;;;9.10;99.90;;;;;;5075186;28;20374;-67
2022/12/07 10:00:21;;;;;;;22.02;12.43;;;9.10;99.90;;;;;;5075427;28;20025;-68
2022/12/07 10:02:57;;;;;;;26.10;13.65;;;8.80;99.90;;;;;;5075136;28;20012;-68
2022/12/07 10:05:45;;;;;;;24.30;14.27;;;8.80;99.90;;;;;;5074833;28;20540;-66
2022/12/07 10:08:12;;;;;;;21.77;12.05;;;8.80;99.90;;;;;;5075016;28;20016;-67
2022/12/07 10:10:39;;;;;;;19.88;12.43;;;8.40;99.90;;;;;;5074955;28;20028;-67
2022/12/07 10:13:11;;;;;;;22.73;13.82;;;8.00;99.90;;;;;;5074810;28;20382;-67
2022/12/07 10:15:44;;;;;;;24.48;13.40;;;7.70;99.90;;;;;;5075200;28;20576;-67
2022/12/07 10:18:33;;;;;;;22.38;12.57;;;7.60;99.90;;;;;;5074677;28;20020;-67
2022/12/07 10:21:16;;;;;;;29.42;13.10;;;7.40;99.90;;;;;;5074367;28;20028;-67
2022/12/07 10:24:03;;;;;;;22.48;12.07;;;7.10;99.90;;;;;;5074822;28;20024;-67
2022/12/07 10:26:32;;;;;;;24.38;13.10;;;6.90;99.90;;;;;;5073933;28;20043;-67
2022/12/07 10:29:17;;;;;;;21.50;12.82;;;6.50;99.90;;;;;;5074317;28;20024;-67
2022/12/07 10:31:45;;;;;;;21.38;13.70;;;6.20;99.90;;;;;;5074038;28;20150;-67
2022/12/07 10:34:29;;;;;;;25.52;13.73;;;5.80;99.90;;;;;;5074571;28;20100;-67
2022/12/07 10:37:13;;;;;;;34.83;13.57;;;5.50;99.90;;;;;;5074822;28;20048;-67
2022/12/07 10:39:51;;;;;;;25.77;15.52;;;5.30;99.90;;;;;;5074576;28;20024;-67
2022/12/07 10:42:26;;;;;;;26.95;16.02;;;5.10;99.90;;;;;;5074365;28;20025;-67
2022/12/07 10:45:15;;;;;;;26.05;16.08;;;4.90;99.90;;;;;;5074246;28;20025;-67
2022/12/07 10:47:59;;;;;;;30.38;15.63;;;4.80;99.90;;;;;;5074605;28;20028;-68
2022/12/07 10:50:27;;;;;;;26.08;14.82;;;4.50;99.90;;;;;;5074309;28;20032;-67
2022/12/07 10:53:04;;;;;;;30.80;17.10;;;4.40;99.90;;;;;;5074193;28;20021;-67
2022/12/07 10:56:00;;;;;;;36.28;24.35;;;4.40;99.90;;;;;;5074512;28;20035;-67
2022/12/07 10:58:49;;;;;;;37.58;22.70;;;4.40;99.90;;;;;;5073763;28;20040;-66
2022/12/07 11:01:28;;;;;;;33.55;20.13;;;4.30;99.90;;;;;;5074036;28;20025;-68
2022/12/07 11:04:14;;;;;;;32.17;20.00;;;4.40;99.90;;;;;;5074226;28;20525;-66
2022/12/07 11:07:01;;;;;;;32.03;17.60;;;4.30;99.90;;;;;;5074027;28;20119;-67
2022/12/07 11:09:47;;;;;;;33.28;21.77;;;4.30;99.90;;;;;;5074149;28;20025;-67
2022/12/07 11:12:30;;;;;;;30.65;18.30;;;4.20;99.90;;;;;;5074097;28;20372;-67
2022/12/07 11:15:22;;;;;;;29.38;16.33;;;4.20;99.90;;;;;;5074153;28;20028;-66
2022/12/07 11:18:18;;;;;;;34.90;18.05;;;4.30;99.90;;;;;;5074214;28;20447;-68
2022/12/07 11:21:06;;;;;;;42.53;23.00;;;4.20;99.90;;;;;;5074215;28;20025;-67
2022/12/07 11:24:01;;;;;;;27.13;16.60;;;4.20;99.90;;;;;;5074343;28;20017;-67
2022/12/07 11:26:41;;;;;;;28.02;16.77;;;4.20;99.90;;;;;;5073888;28;20024;-68
2022/12/07 11:29:20;;;;;;;;;;;4.30;99.90;;;;;;5074051;28;20025;-67
2022/12/07 11:32:13;;;;;;;27.17;16.40;;;4.30;99.90;;;;;;5074237;28;19995;-68
2022/12/07 11:34:39;;;;;;;26.55;15.60;;;4.40;99.90;;;;;;5054806;28;20513;-67
2022/12/07 11:37:12;;;;;;;26.42;16.85;;;4.40;99.90;;;;;;5073546;28;20029;-67
2022/12/07 11:39:59;;;;;;;28.40;15.90;;;4.50;99.90;;;;;;5073510;28;20103;-67
2022/12/07 11:42:29;;;;;;;28.67;15.23;;;4.60;99.90;;;;;;5074252;28;20428;-67
2022/12/07 11:45:24;;;;;;;25.70;15.07;;;4.70;99.90;;;;;;5077496;28;20020;-67
2022/12/07 11:48:02;;;;;;;24.55;14.35;;;4.80;99.90;;;;;;5077328;28;20067;-68
2022/12/07 11:50:59;;;;;;;27.20;15.55;;;4.80;99.90;;;;;;5077487;28;20467;-68
2022/12/07 11:53:39;;;;;;;23.25;14.07;;;4.80;99.90;;;;;;5056947;28;20107;-68
2022/12/07 11:56:10;;;;;;;23.98;13.70;;;4.90;99.90;;;;;;5077630;28;20537;-67
2022/12/07 11:58:49;;;;;;;25.05;14.18;;;4.80;99.90;;;;;;5077088;28;20070;-68
2022/12/07 12:01:17;;;;;;;21.15;12.73;;;4.90;99.90;;;;;;5077516;28;20175;-68
2022/12/07 12:03:49;;;;;;;25.95;14.95;;;5.00;99.90;;;;;;5077258;28;20026;-67
2022/12/07 12:06:15;;;;;;;66.40;32.08;;;5.00;99.90;;;;;;5076613;28;20032;-67
2022/12/07 12:09:19;;;;;;;26.60;14.80;;;5.10;99.90;;;;;;5077474;28;20031;-67
2022/12/07 12:12:17;;;;;;;22.52;13.98;;;5.10;99.90;;;;;;5055125;28;20048;-68
2022/12/07 12:15:07;;;;;;;26.08;15.27;;;5.10;99.90;;;;;;5077278;28;20044;-67
2022/12/07 12:18:15;;;;;;;23.80;13.75;;;5.20;99.90;;;;;;5077490;28;20033;-68
2022/12/07 12:20:47;;;;;;;21.52;12.45;;;5.30;99.90;;;;;;5077046;28;20025;-67
2022/12/07 12:23:16;;;;;;;26.20;13.93;;;5.30;99.90;;;;;;5077085;28;20104;-68
2022/12/07 12:25:49;;;;;;;24.10;13.85;;;5.30;99.90;;;;;;5076537;28;20043;-67
2022/12/07 12:28:29;;;;;;;23.15;13.35;;;5.30;99.90;;;;;;5077016;28;20036;-68
2022/12/07 12:31:27;;;;;;;21.77;13.52;;;5.40;99.90;;;;;;5077012;28;20044;-68
2022/12/07 12:34:00;;;;;;;23.00;12.75;;;5.50;99.90;;;;;;4990000;28;20045;-68
2022/12/07 12:36:25;;;;;;;22.02;12.30;;;5.40;99.90;;;;;;5076977;28;20058;-67
2022/12/07 12:39:16;;;;;;;21.73;12.10;;;5.50;99.90;;;;;;5077022;28;20032;-67
2022/12/07 12:42:05;;;;;;;22.48;12.77;;;5.50;99.90;;;;;;5077133;28;20028;-67
2022/12/07 12:44:31;;;;;;;23.65;12.35;;;5.50;99.90;;;;;;5076067;28;20093;-68
2022/12/07 12:46:57;;;;;;;21.45;11.82;;;5.60;99.90;;;;;;5076386;28;20525;-67
2022/12/07 12:49:23;;;;;;;23.02;12.65;;;5.60;99.90;;;;;;5076801;28;20032;-67
2022/12/07 12:52:08;;;;;;;21.02;11.98;;;5.60;99.90;;;;;;5076508;28;20043;-67
2022/12/07 12:54:36;;;;;;;21.17;12.13;;;5.50;99.90;;;;;;5076284;28;20029;-67